Time;durP1;ratioP1;P1;durP2;ratioP2;P2;SDS_P1;SDS_P2;PMS_P1;PMS_P2;Temp;Humidity;BMP_temperature;BMP_pressure;BME280_temperature;BME280_humidity;BME280_pressure;Samples;Min_cycle;Max_cycle;Signal;HPM_P1;HPM_P2
2022/08/13 00:01:01;;;;;;;2.83;2.63;;;23.50;53.40;;;24.61;36.15;100603.50;5011700;28;20653;-71
2022/08/13 00:03:30;;;;;;;2.87;2.67;;;23.50;53.10;;;24.49;35.91;100604.28;5004614;28;20622;-71
2022/08/13 00:09:22;;;;;;;2.07;2.00;;;23.40;52.40;;;24.45;36.04;100595.00;4971659;28;20659;-70
2022/08/13 00:15:07;;;;;;;2.50;2.10;;;23.40;52.20;;;24.36;35.98;100597.03;5012004;28;20638;-67
2022/08/13 00:17:41;;;;;;;1.87;1.80;;;23.40;52.30;;;24.43;35.71;100597.06;5012345;28;21073;-70
2022/08/13 00:20:43;;;;;;;3.80;2.00;;;23.40;52.40;;;24.45;35.44;100587.84;5012438;28;20614;-70
2022/08/13 00:23:23;;;;;;;1.97;1.87;;;23.30;53.00;;;24.44;35.66;100588.03;5011183;28;21046;-70
2022/08/13 00:26:11;;;;;;;1.77;1.67;;;23.30;52.40;;;24.44;35.57;100596.88;5012490;28;21076;-71
2022/08/13 00:28:43;;;;;;;1.93;1.83;;;23.30;52.50;;;24.50;35.90;100596.06;5012087;28;20626;-70
2022/08/13 00:31:10;;;;;;;2.20;2.10;;;23.40;52.50;;;24.40;35.74;100600.97;5011681;28;21216;-70
2022/08/13 00:33:37;;;;;;;1.77;1.77;;;23.30;52.50;;;24.50;35.88;100595.25;5012594;28;20625;-70
2022/08/13 00:36:16;;;;;;;2.43;2.30;;;23.40;53.20;;;24.51;35.93;100592.38;5011033;28;21575;-72
2022/08/13 00:39:05;;;;;;;5.93;2.80;;;23.30;52.60;;;24.48;36.85;100592.78;5012902;28;20693;-70
2022/08/13 00:41:38;;;;;;;3.30;3.00;;;23.40;53.70;;;24.47;37.50;100591.13;4993455;28;21199;-70
2022/08/13 00:44:28;;;;;;;3.43;2.83;;;23.40;54.20;;;24.40;37.67;100600.97;4991139;28;21050;-70
2022/08/13 00:48:41;;;;;;;3.20;2.70;;;23.30;54.50;;;24.32;38.19;100593.13;4992332;28;20619;-70
2022/08/13 00:49:47;;;;;;;2.53;2.43;;;23.30;54.80;;;24.15;38.52;100591.81;4978974;28;20960;-70
2022/08/13 00:52:32;;;;;;;2.13;2.03;;;23.20;55.10;;;24.04;38.83;100592.41;5008457;28;20634;-69
2022/08/13 00:55:03;;;;;;;2.90;2.60;;;23.10;55.50;;;24.07;39.38;100594.69;4994650;28;20648;-70
2022/08/13 00:57:33;;;;;;;2.20;2.00;;;23.00;56.30;;;24.01;40.10;100594.59;5018553;28;20988;-70
2022/08/13 01:00:11;;;;;;;2.47;2.33;;;23.00;56.90;;;23.94;40.36;100599.09;5010655;28;20653;-70
2022/08/13 01:02:42;;;;;;;2.60;2.50;;;22.90;57.10;;;23.88;40.59;100588.22;4993778;28;20737;-69
2022/08/13 01:05:24;;;;;;;2.20;2.10;;;22.80;57.20;;;23.79;40.55;100596.53;4995263;28;20712;-70
2022/08/13 01:07:55;;;;;;;2.50;2.30;;;22.80;57.50;;;23.78;40.95;100597.56;4994415;28;20721;-71
2022/08/13 01:10:25;;;;;;;3.70;2.27;;;22.70;57.70;;;23.70;41.07;100600.41;4993928;28;20632;-70
2022/08/13 01:12:54;;;;;;;2.70;2.50;;;22.70;58.10;;;23.67;41.42;100601.63;5011072;28;20634;-70
2022/08/13 01:15:26;;;;;;;2.43;2.23;;;22.60;58.30;;;23.65;41.45;100603.66;4992651;28;20666;-70
2022/08/13 01:18:13;;;;;;;2.57;2.20;;;22.60;58.30;;;23.57;41.18;100598.47;4995929;28;21017;-70
2022/08/13 01:21:02;;;;;;;2.63;2.20;;;22.50;58.10;;;23.44;41.46;100600.22;4992548;28;20641;-70
2022/08/13 01:23:30;;;;;;;2.33;2.23;;;22.40;58.30;;;23.36;41.68;100600.38;4979091;28;20637;-70
2022/08/13 01:26:06;;;;;;;2.47;2.30;;;22.40;58.60;;;23.38;41.63;100598.34;5001681;28;20672;-69
2022/08/13 01:28:38;;;;;;;2.23;2.13;;;22.40;58.90;;;23.21;42.13;100595.09;5011257;28;20610;-69
2022/08/13 01:31:10;;;;;;;2.40;2.10;;;22.30;59.10;;;23.33;42.46;100603.41;5010903;28;20657;-70
2022/08/13 01:33:56;;;;;;;2.27;2.13;;;22.30;59.80;;;23.45;42.30;100601.84;4995154;28;20649;-70
2022/08/13 01:36:25;;;;;;;2.70;2.50;;;22.40;59.50;;;;;;4993072;28;21210;-70
2022/08/13 01:39:13;;;;;;;2.57;2.40;;;22.30;59.80;;;23.13;43.30;100595.22;5010961;28;20692;-71
2022/08/13 01:41:47;;;;;;;7.87;2.50;;;22.20;60.30;;;23.03;43.68;100584.91;5011141;28;20641;-70
2022/08/13 01:44:22;;;;;;;2.83;2.47;;;22.10;60.70;;;23.04;44.61;100581.22;5010839;28;20759;-70
2022/08/13 01:53:11;;;;;;;3.47;3.10;;;22.00;61.10;;;23.11;42.84;100590.09;5011883;28;20653;-70
2022/08/13 01:56:07;;;;;;;3.83;2.90;;;22.10;60.60;;;23.19;42.92;100598.97;5011483;28;20629;-69
2022/08/13 01:58:47;;;;;;;3.17;2.87;;;22.10;60.30;;;22.93;43.25;100592.41;5002608;28;20633;-70
2022/08/13 02:01:34;;;;;;;2.83;2.50;;;22.00;60.40;;;22.84;43.24;100590.88;5010699;28;20617;-70
2022/08/13 02:04:13;;;;;;;2.70;2.60;;;22.00;60.50;;;22.72;43.67;100595.03;5002744;28;20653;-71
2022/08/13 02:06:49;;;;;;;3.43;2.20;;;21.90;60.70;;;22.80;43.52;100597.59;5009055;28;21247;-70
2022/08/13 02:09:23;;;;;;;2.27;2.17;;;21.80;60.90;;;22.73;43.84;100595.88;5009104;28;20613;-67
2022/08/13 02:12:13;;;;;;;3.37;2.37;;;21.80;61.10;;;22.65;44.25;100604.81;4997219;28;20633;-69
2022/08/13 02:15:03;;;;;;;5.70;2.90;;;21.70;61.50;;;22.58;44.35;100603.88;5014462;28;20717;-69
2022/08/13 02:17:35;;;;;;;3.60;2.90;;;21.60;61.70;;;22.65;44.25;100603.97;5013375;28;20637;-69
2022/08/13 02:20:22;;;;;;;2.97;2.77;;;21.70;61.90;;;22.63;44.41;100592.72;5013650;28;20648;-69
2022/08/13 02:22:50;;;;;;;3.33;2.87;;;21.60;62.10;;;22.51;44.55;100604.84;5013405;28;20629;-69
2022/08/13 02:25:20;;;;;;;6.67;3.23;;;21.60;62.10;;;22.53;44.63;100594.84;5013574;28;21188;-69
2022/08/13 02:27:48;;;;;;;2.70;2.50;;;21.50;62.30;;;22.48;44.51;100606.03;5013786;28;21169;-69
2022/08/13 02:30:29;;;;;;;3.00;2.80;;;21.50;62.10;;;22.54;44.52;100607.94;5013950;28;20614;-69
2022/08/13 02:32:59;;;;;;;2.97;2.40;;;21.50;62.20;;;22.50;44.82;100609.31;5006775;28;20996;-69
2022/08/13 02:35:26;;;;;;;3.03;2.73;;;21.60;62.40;;;22.38;45.05;100605.50;4996840;28;20657;-72
2022/08/13 02:38:15;;;;;;;6.20;2.50;;;21.50;62.60;;;22.50;44.85;100600.50;5013745;28;20649;-70
2022/08/13 02:41:43;;;;;;;3.73;2.43;;;21.50;62.70;;;22.44;44.88;100601.28;5014824;28;20716;-69
2022/08/13 02:43:50;;;;;;;2.40;2.30;;;21.50;62.60;;;22.40;45.07;100603.50;5011193;28;20635;-69
2022/08/13 02:46:25;;;;;;;2.87;1.97;;;21.50;62.70;;;22.45;44.94;100601.06;5014953;28;20661;-69
2022/08/13 02:48:53;;;;;;;3.27;2.47;;;21.40;62.70;;;22.40;44.93;100608.81;5015145;28;20653;-69
2022/08/13 02:51:23;;;;;;;2.57;2.37;;;21.50;62.70;;;22.38;45.29;100605.50;5011763;28;20636;-69
2022/08/13 02:54:11;;;;;;;2.40;2.30;;;21.40;63.10;;;22.32;45.39;100607.06;5013164;28;20626;-69
2022/08/13 02:56:39;;;;;;;2.27;2.03;;;21.40;63.30;;;22.15;45.75;100605.63;5013628;28;20656;-69
2022/08/13 02:59:10;;;;;;;3.27;2.40;;;21.30;63.60;;;22.28;45.52;100608.44;5014908;28;20617;-69
2022/08/13 03:01:59;;;;;;;3.93;2.60;;;21.30;63.60;;;22.35;45.38;100600.56;5013872;28;20605;-69
2022/08/13 03:04:26;;;;;;;2.50;2.40;;;21.30;63.50;;;22.53;45.28;100613.44;5013539;28;20641;-69
2022/08/13 03:06:59;;;;;;;3.40;2.17;;;21.40;63.30;;;22.43;45.37;100608.41;5011332;28;20636;-70
2022/08/13 03:09:29;;;;;;;2.50;2.33;;;21.40;63.30;;;22.32;45.48;100604.41;5012941;28;20610;-69
2022/08/13 03:12:03;;;;;;;2.70;2.57;;;21.40;63.40;;;22.21;45.89;100601.41;4995761;28;21193;-71
2022/08/13 03:14:34;;;;;;;2.83;2.53;;;21.30;63.60;;;22.07;46.01;100618.19;5013657;28;20628;-70
2022/08/13 03:17:01;;;;;;;3.13;2.47;;;21.20;63.90;;;22.05;46.27;100610.41;5012573;28;20736;-69
2022/08/13 03:19:29;;;;;;;2.87;2.67;;;21.10;64.10;;;21.86;46.59;100616.28;5013175;28;20638;-69
2022/08/13 03:22:01;;;;;;;2.87;2.60;;;21.00;64.70;;;21.86;46.84;100621.59;5011447;28;21216;-69
2022/08/13 03:24:29;;;;;;;2.53;2.40;;;21.00;65.00;;;21.79;46.92;100619.81;5011465;28;21072;-69
2022/08/13 03:27:00;;;;;;;2.40;2.30;;;20.90;65.10;;;21.67;47.56;100616.78;5012915;28;20617;-69
2022/08/13 03:29:28;;;;;;;11.43;2.87;;;20.80;65.30;;;21.81;47.14;100617.78;4997170;28;20609;-69
2022/08/13 03:32:17;;;;;;;2.40;2.30;;;20.80;65.40;;;21.76;47.18;100618.38;4999074;28;20761;-69
2022/08/13 03:34:59;;;;;;;3.57;2.73;;;20.80;65.60;;;21.80;47.22;100616.97;4998196;28;21111;-69
2022/08/13 03:37:44;;;;;;;2.30;2.20;;;20.80;65.40;;;21.76;47.02;100615.72;5002643;28;20629;-71
2022/08/13 03:40:13;;;;;;;2.57;2.37;;;20.80;65.30;;;21.76;46.82;100614.88;5011373;28;20617;-69
2022/08/13 03:42:48;;;;;;;2.93;2.57;;;20.80;65.00;;;21.73;46.57;100615.22;5013579;28;20617;-71
2022/08/13 03:45:24;;;;;;;2.40;2.30;;;20.80;64.80;;;21.70;46.83;100620.91;5012712;28;21241;-71
2022/08/13 03:47:52;;;;;;;2.50;2.30;;;20.80;65.60;;;21.73;46.94;100625.84;5013647;28;20657;-69
2022/08/13 03:50:20;;;;;;;2.20;2.10;;;20.80;65.10;;;21.75;46.66;100629.16;5014564;28;20608;-69
2022/08/13 03:52:49;;;;;;;3.53;3.03;;;20.80;64.80;;;21.69;46.70;100619.25;5003220;28;20632;-70
2022/08/13 03:55:18;;;;;;;2.50;2.40;;;20.80;65.00;;;21.73;46.86;100615.22;4992344;28;20673;-69
2022/08/13 03:57:45;;;;;;;2.80;2.60;;;20.80;65.20;;;21.69;46.96;100620.09;5012598;28;20621;-69
2022/08/13 04:00:32;;;;;;;3.10;2.30;;;20.80;65.40;;;21.58;47.41;100615.22;5013773;28;20620;-69
2022/08/13 04:03:13;;;;;;;2.70;2.50;;;20.60;65.80;;;21.55;47.52;100618.25;5012917;28;20610;-69
2022/08/13 04:05:41;;;;;;;3.93;2.83;;;20.50;66.10;;;21.38;47.55;100611.44;5004794;28;20669;-70
2022/08/13 04:08:28;;;;;;;2.40;2.20;;;20.40;65.90;;;21.33;47.52;100614.66;5006139;28;20624;-70
2022/08/13 04:10:57;;;;;;;2.97;2.70;;;20.30;66.10;;;21.18;47.45;100620.91;5012906;28;21173;-71
2022/08/13 04:13:28;;;;;;;2.80;2.60;;;20.20;66.20;;;21.10;47.63;100621.81;5012070;28;20664;-69
2022/08/13 04:16:20;;;;;;;2.67;2.50;;;20.10;66.40;;;21.12;47.73;100625.09;5011470;28;20633;-70
2022/08/13 04:18:54;;;;;;;3.00;2.40;;;20.00;66.60;;;21.17;47.55;100614.78;5010763;28;21192;-69
2022/08/13 04:21:28;;;;;;;3.20;2.90;;;20.10;66.30;;;21.15;47.04;100611.47;5009158;28;20641;-69
2022/08/13 04:23:57;;;;;;;2.90;2.63;;;20.10;66.20;;;21.16;47.47;100609.66;5007894;28;20617;-69
2022/08/13 04:26:26;;;;;;;2.80;2.60;;;20.10;66.10;;;21.24;47.21;100612.22;5022988;23;20812;-65
2022/08/13 04:29:00;;;;;;;2.67;2.50;;;20.10;66.10;;;21.13;47.44;100602.88;4991949;28;20610;-68
2022/08/13 04:31:28;;;;;;;3.27;2.70;;;20.10;66.40;;;21.18;47.63;100603.16;4959057;28;20627;-66
2022/08/13 04:34:20;;;;;;;3.03;2.70;;;20.10;66.60;;;21.20;47.38;100605.63;5004730;28;21267;-65
2022/08/13 04:37:09;;;;;;;2.97;2.80;;;20.20;66.20;;;21.23;47.13;100603.44;4975608;28;20611;-64
2022/08/13 04:39:52;;;;;;;3.13;2.93;;;20.30;66.00;;;21.34;46.90;100600.34;4985325;28;20642;-64
2022/08/13 04:42:53;;;;;;;3.27;3.00;;;20.40;65.80;;;21.57;46.46;100609.06;4970817;28;20638;-65
2022/08/13 04:45:27;;;;;;;3.07;2.87;;;20.60;65.30;;;21.85;45.89;100619.13;4992334;28;20666;-65
2022/08/13 04:48:03;;;;;;;2.80;2.63;;;20.80;64.80;;;22.03;45.27;100623.06;4961192;28;20631;-67
2022/08/13 04:50:34;;;;;;;2.80;2.60;;;20.90;64.40;;;22.17;45.00;100619.56;4971440;28;20616;-66
2022/08/13 04:53:29;;;;;;;3.40;3.20;;;21.10;64.00;;;22.28;44.82;100628.88;4972334;28;21436;-64
2022/08/13 04:55:59;;;;;;;2.63;2.43;;;21.20;63.70;;;22.53;44.00;100624.09;4972266;28;21245;-64
2022/08/13 04:58:45;;;;;;;3.27;2.97;;;21.40;63.10;;;22.79;43.40;100625.22;4970428;28;20636;-67
2022/08/13 05:01:12;;;;;;;2.83;2.63;;;21.60;63.10;;;22.90;43.01;100616.72;4962797;28;20626;-64
2022/08/13 05:04:00;;;;;;;3.30;2.80;;;21.70;62.00;;;22.99;42.69;100620.91;4977552;28;21171;-67
2022/08/13 05:06:49;;;;;;;2.80;2.67;;;21.80;61.80;;;23.25;42.06;100622.16;4976413;28;20655;-67
2022/08/13 05:09:19;;;;;;;3.97;2.77;;;22.00;61.40;;;23.34;41.81;100626.38;4972161;28;20620;-66
2022/08/13 05:11:58;;;;;;;2.90;2.70;;;22.00;61.00;;;23.48;41.76;100622.78;4985096;28;20674;-67
2022/08/13 05:14:32;;;;;;;2.50;2.30;;;22.20;60.80;;;23.66;41.51;100623.91;4986093;28;21170;-67
2022/08/13 05:17:04;;;;;;;2.73;2.63;;;22.30;60.70;;;23.84;41.48;100631.41;4989568;28;20646;-65
2022/08/13 05:19:32;;;;;;;7.10;2.93;;;22.50;60.30;;;24.01;40.64;100634.59;4980692;28;20695;-66
2022/08/13 05:22:05;;;;;;;4.60;2.70;;;22.60;60.00;;;24.18;40.59;100633.28;4971689;28;20615;-65
2022/08/13 05:24:41;;;;;;;8.27;2.90;;;22.80;59.70;;;24.48;39.75;100637.28;4969706;28;20654;-67
2022/08/13 05:27:28;;;;;;;8.30;2.90;;;23.10;59.30;;;24.81;39.04;100648.09;4974567;28;21273;-65
2022/08/13 05:30:00;;;;;;;2.90;2.70;;;23.30;58.60;;;24.86;39.06;100638.47;4971247;28;20718;-64
2022/08/13 05:32:49;;;;;;;2.50;2.40;;;23.60;58.10;;;25.12;39.08;100630.50;4957208;28;20622;-67
2022/08/13 05:35:16;;;;;;;7.33;2.97;;;23.80;57.80;;;25.44;38.32;100633.38;4971689;28;20659;-65
2022/08/13 05:38:04;;;;;;;3.47;2.83;;;24.20;57.30;;;25.82;37.45;100637.88;4984547;28;20608;-68
2022/08/13 05:40:47;;;;;;;5.03;2.80;;;24.60;56.50;;;26.23;36.87;100648.28;4980867;28;20639;-67
2022/08/13 05:43:24;;;;;;;2.90;2.80;;;25.00;55.80;;;26.52;36.35;100645.06;4974754;28;20718;-64
2022/08/13 05:45:57;;;;;;;3.13;2.70;;;25.30;55.40;;;26.90;36.07;100647.75;4989454;28;20680;-65
2022/08/13 05:48:56;;;;;;;3.13;2.90;;;25.60;55.00;;;27.48;35.32;100649.19;4991181;28;20618;-64
2022/08/13 05:51:31;;;;;;;2.93;2.73;;;26.00;54.50;;;28.07;33.85;100645.09;4960554;28;21086;-65
2022/08/13 05:54:19;;;;;;;3.70;2.67;;;26.50;53.80;;;28.67;33.35;100649.53;4971681;28;21030;-67
2022/08/13 05:57:06;;;;;;;2.97;2.67;;;27.00;53.20;;;28.99;32.63;100650.94;4987193;28;20649;-67
2022/08/13 06:05:08;;;;;;;7.30;3.00;;;28.40;51.50;;;30.79;30.67;100659.84;4988753;28;20662;-65
2022/08/13 06:07:41;;;;;;;9.53;2.90;;;28.90;51.20;;;31.70;29.69;100652.25;4973524;28;21041;-67
2022/08/13 06:10:09;;;;;;;1.87;1.87;;;29.40;50.60;;;32.22;28.51;100654.59;4958551;28;21008;-67
2022/08/13 06:12:38;;;;;;;2.37;2.27;;;29.80;50.10;;;32.85;27.40;100652.91;4954378;28;20619;-64
2022/08/13 06:15:10;;;;;;;2.43;2.30;;;30.10;49.70;;;33.74;26.39;100653.13;4951391;28;20665;-67
2022/08/13 06:17:38;;;;;;;2.63;2.53;;;30.50;49.60;;;34.39;26.26;100658.06;4990388;28;20623;-67
2022/08/13 06:20:07;;;;;;;2.90;2.70;;;30.90;49.00;;;34.92;25.14;100657.66;4975781;28;20674;-67
2022/08/13 06:22:40;;;;;;;2.20;2.10;;;31.20;48.60;;;35.56;24.22;100662.59;4953640;28;20630;-68
2022/08/13 06:25:08;;;;;;;3.00;2.80;;;31.60;47.90;;;36.20;23.17;100658.09;4955606;28;20652;-68
2022/08/13 06:27:38;;;;;;;2.83;2.60;;;32.20;47.20;;;36.70;22.99;100653.47;4970990;28;20609;-65
2022/08/13 06:30:25;;;;;;;2.40;2.30;;;32.80;46.40;;;37.03;22.88;100652.75;4976040;28;20619;-66
2022/08/13 06:33:03;;;;;;;2.37;2.27;;;33.20;46.30;;;37.93;21.98;100660.06;4980324;28;21063;-64
2022/08/13 06:35:57;;;;;;;2.43;2.33;;;33.90;45.00;;;38.59;21.45;100659.25;4981471;28;20654;-66
2022/08/13 06:38:33;;;;;;;2.60;2.50;;;34.50;44.40;;;39.47;19.89;100657.28;4981316;28;20619;-65
2022/08/13 06:41:05;;;;;;;2.60;2.50;;;35.00;44.00;;;39.75;19.65;100658.16;4990647;28;20649;-66
2022/08/13 06:43:37;;;;;;;2.70;2.57;;;35.50;43.30;;;40.31;19.35;100663.34;4989975;28;20619;-66
2022/08/13 06:46:28;;;;;;;2.57;2.27;;;35.80;42.80;;;41.14;18.05;100661.97;4972423;28;20658;-65
2022/08/13 06:49:01;;;;;;;2.50;2.30;;;36.50;42.00;;;41.79;17.80;100660.25;4988741;28;20622;-66
2022/08/13 06:51:31;;;;;;;2.47;2.37;;;36.90;41.90;;;41.93;18.12;100666.47;4971290;28;21057;-68
2022/08/13 06:54:08;;;;;;;2.20;2.10;;;37.20;41.60;;;42.74;17.40;100669.53;4985593;28;20641;-68
2022/08/13 06:56:58;;;;;;;2.40;2.30;;;37.70;41.20;;;42.72;16.75;100666.31;4955667;28;20623;-67
2022/08/13 06:59:48;;;;;;;2.13;2.00;;;37.70;41.00;;;42.16;17.89;100662.50;4959292;28;21001;-67
2022/08/13 07:02:37;;;;;;;2.17;2.07;;;37.20;41.10;;;41.02;18.52;100661.75;4973102;28;21076;-68
2022/08/13 07:05:06;;;;;;;8.53;2.60;;;36.60;41.40;;;41.07;18.37;100667.06;4986264;28;21009;-68
2022/08/13 07:07:44;;;;;;;3.70;2.20;;;36.60;41.50;;;40.88;18.81;100661.78;4989873;28;21322;-69
2022/08/13 07:10:13;;;;;;;2.10;2.00;;;36.50;41.70;;;40.38;19.41;100658.22;4995252;28;20629;-69
2022/08/13 07:12:42;;;;;;;2.43;2.33;;;36.20;42.00;;;39.80;19.91;100670.91;4975335;28;20826;-69
2022/08/13 07:15:15;;;;;;;2.17;2.17;;;36.00;42.40;;;39.44;20.59;100668.81;4975248;28;20660;-68
2022/08/13 07:18:04;;;;;;;2.20;2.10;;;35.90;42.40;;;38.63;21.17;100663.78;4973701;28;20622;-69
2022/08/13 07:20:32;;;;;;;2.20;2.10;;;35.40;42.60;;;38.16;21.64;100666.63;4972729;28;20726;-70
2022/08/13 07:22:59;;;;;;;2.53;2.23;;;35.00;43.00;;;37.35;21.68;100661.19;4962020;28;20738;-68
2022/08/13 07:25:47;;;;;;;4.07;2.30;;;34.40;43.10;;;36.38;23.17;100657.44;4977445;28;20664;-69
2022/08/13 07:28:30;;;;;;;2.30;2.20;;;33.70;43.70;;;35.54;24.14;100665.59;4977024;28;20705;-70
2022/08/13 07:31:29;;;;;;;2.77;2.20;;;33.50;44.40;;;36.12;23.86;100660.56;4973449;28;20638;-66
2022/08/13 07:34:16;;;;;;;12.40;2.37;;;33.40;45.00;;;35.25;24.50;100658.22;4980164;28;21214;-67
2022/08/13 07:36:43;;;;;;;2.50;2.30;;;33.10;44.70;;;34.32;25.79;100654.78;4981032;28;21126;-69
2022/08/13 07:39:26;;;;;;;3.03;2.63;;;32.60;45.20;;;34.59;25.38;100663.56;4991772;28;20651;-69
2022/08/13 07:41:55;;;;;;;2.13;2.00;;;32.20;45.80;;;34.67;25.13;100657.59;4986951;28;21065;-69
2022/08/13 07:44:31;;;;;;;2.17;2.07;;;32.20;46.20;;;34.45;25.90;100657.00;4980532;28;20617;-69
2022/08/13 07:47:20;;;;;;;2.30;2.20;;;31.90;46.40;;;34.12;26.13;100641.97;5001673;28;21026;-69
2022/08/13 07:49:50;;;;;;;2.30;2.20;;;31.90;46.60;;;33.88;26.36;100658.88;4992358;28;20598;-68
2022/08/13 07:52:18;;;;;;;2.27;2.17;;;31.40;46.50;;;33.57;26.04;100647.88;4978034;28;20611;-68
2022/08/13 07:54:47;;;;;;;2.03;1.93;;;31.30;46.50;;;32.65;28.18;100641.06;4978051;28;20644;-67
2022/08/13 07:57:17;;;;;;;2.43;2.33;;;30.90;47.10;;;33.01;27.31;100648.47;4976944;28;20685;-66
2022/08/13 07:59:53;;;;;;;2.70;2.60;;;31.00;47.10;;;32.98;27.78;100643.56;4992184;28;20630;-67
2022/08/13 08:02:40;;;;;;;2.33;2.33;;;31.00;47.20;;;33.14;27.12;100641.84;4978320;28;20625;-69
2022/08/13 08:05:14;;;;;;;2.50;2.40;;;31.00;47.40;;;33.00;27.35;100646.84;4986247;28;20662;-67
2022/08/13 08:07:50;;;;;;;2.40;2.30;;;31.00;47.10;;;32.90;27.70;100638.63;4981121;28;20662;-70
2022/08/13 08:10:36;;;;;;;2.63;2.50;;;30.90;47.40;;;33.06;27.83;100640.41;4972453;28;20627;-67
2022/08/13 08:13:03;;;;;;;2.53;2.43;;;31.00;47.40;;;33.02;27.78;100649.28;4992465;28;20617;-68
2022/08/13 08:15:31;;;;;;;2.40;2.30;;;30.90;47.10;;;32.90;27.37;100646.75;4986454;28;21064;-69
2022/08/13 08:18:18;;;;;;;2.23;2.13;;;30.90;47.10;;;32.52;28.29;100641.50;4985087;28;20698;-67
2022/08/13 08:21:07;;;;;;;2.30;2.20;;;30.80;47.70;;;32.78;27.93;100648.75;4986474;28;20632;-67
2022/08/13 08:24:01;;;;;;;4.07;2.37;;;30.80;47.50;;;32.37;28.39;100642.09;4959412;28;20618;-67
2022/08/13 08:26:34;;;;;;;2.70;2.60;;;30.60;47.70;;;32.28;28.28;100640.09;4982009;28;20714;-69
2022/08/13 08:29:09;;;;;;;3.70;2.50;;;30.50;47.50;;;32.47;28.39;100641.44;4992109;28;21103;-66
2022/08/13 08:31:40;;;;;;;2.43;2.33;;;30.50;47.70;;;32.64;28.32;100637.56;4983726;28;20651;-67
2022/08/13 08:34:26;;;;;;;2.40;2.30;;;30.60;47.80;;;32.85;27.80;100643.97;4985538;28;20990;-68
2022/08/13 08:36:55;;;;;;;2.77;2.50;;;30.70;47.70;;;32.94;28.00;100641.63;5003482;28;21090;-69
2022/08/13 08:45:02;;;;;;;2.77;2.57;;;30.80;47.20;;;32.50;28.05;100630.91;4963577;28;20652;-65
2022/08/13 08:47:37;;;;;;;3.00;2.80;;;30.70;47.20;;;32.31;28.24;100626.09;4977574;28;20669;-66
2022/08/13 08:50:26;;;;;;;2.80;2.60;;;30.70;47.60;;;32.56;27.99;100629.91;4961176;28;20635;-66
2022/08/13 08:53:19;;;;;;;2.60;2.50;;;30.80;47.40;;;31.95;28.81;100616.72;4970671;28;20662;-67
2022/08/13 08:56:08;;;;;;;2.50;2.40;;;30.60;47.30;;;32.49;27.84;100617.69;4983286;28;20667;-66
2022/08/13 08:58:41;;;;;;;2.63;2.53;;;30.70;47.20;;;32.67;27.95;100618.13;4981319;28;20709;-68
2022/08/13 09:01:12;;;;;;;2.90;2.80;;;30.80;47.20;;;32.45;27.81;100622.75;4972629;28;20622;-67
2022/08/13 09:03:46;;;;;;;2.33;2.30;;;30.80;47.10;;;32.29;28.02;100614.72;4965958;28;20645;-66
2022/08/13 09:06:28;;;;;;;2.80;2.60;;;30.70;47.20;;;32.63;27.86;100619.72;4985240;28;20683;-67
2022/08/13 09:09:17;;;;;;;2.70;2.60;;;30.90;47.00;;;32.61;27.11;100615.63;4991376;28;20618;-67
2022/08/13 09:11:55;;;;;;;2.67;2.57;;;30.80;46.30;;;32.73;27.20;100613.59;4976720;28;21054;-64
2022/08/13 09:14:30;;;;;;;3.50;2.50;;;31.00;46.60;;;32.80;26.74;100612.31;4975373;28;20632;-69
2022/08/13 09:17:04;;;;;;;2.50;2.40;;;31.10;46.10;;;32.95;27.04;100611.63;4971441;28;20721;-67
2022/08/13 09:19:41;;;;;;;2.77;2.67;;;31.30;46.10;;;33.39;26.34;100613.06;4974148;28;20646;-66
2022/08/13 09:22:24;;;;;;;2.70;2.50;;;31.50;45.90;;;33.06;26.84;100613.38;4985461;28;20650;-69
2022/08/13 09:24:56;;;;;;;2.17;2.07;;;31.60;45.60;;;32.51;27.00;100610.13;4990015;28;20661;-68
2022/08/13 09:27:30;;;;;;;2.63;2.43;;;31.30;45.30;;;32.73;26.80;100595.50;4975574;28;20668;-66
2022/08/13 09:30:18;;;;;;;2.90;2.70;;;31.30;45.50;;;32.65;26.41;100600.53;4971297;28;20639;-68
2022/08/13 09:32:53;;;;;;;2.87;2.70;;;31.30;45.40;;;32.62;26.32;100601.06;4985866;28;20650;-69
2022/08/13 09:35:25;;;;;;;2.73;2.53;;;31.20;45.20;;;32.60;26.49;100592.41;4971298;28;20651;-68
2022/08/13 09:38:01;;;;;;;4.23;2.47;;;31.10;45.00;;;32.94;26.14;100582.16;4972132;28;21225;-68
2022/08/13 09:40:31;;;;;;;2.27;2.17;;;31.30;45.10;;;33.03;25.90;100586.84;4981935;28;20650;-68
2022/08/13 09:43:31;;;;;;;2.57;2.47;;;31.40;45.00;;;32.55;26.21;100578.84;4957301;28;21062;-68
2022/08/13 09:46:16;;;;;;;2.33;2.23;;;31.30;44.60;;;32.45;26.01;100582.25;4982565;28;20659;-68
2022/08/13 09:48:51;;;;;;;2.27;2.17;;;31.10;44.60;;;32.35;26.20;100584.03;4988184;28;20639;-66
2022/08/13 09:51:21;;;;;;;1.77;1.77;;;30.90;44.70;;;32.17;26.25;100576.25;4969812;28;21187;-66
2022/08/13 09:54:09;;;;;;;2.37;2.27;;;30.90;44.50;;;32.37;26.02;100576.47;4977182;28;20649;-68
2022/08/13 09:56:39;;;;;;;2.23;2.13;;;31.00;44.80;;;32.60;25.65;100565.41;4970728;28;20709;-67
2022/08/13 09:59:10;;;;;;;2.40;2.30;;;31.10;44.50;;;32.28;26.62;100561.78;4985814;28;20731;-67
2022/08/13 10:01:57;;;;;;;1.17;1.13;;;31.00;44.70;;;32.24;25.62;100572.28;4970602;28;21006;-69
2022/08/13 10:04:26;;;;;;;2.10;2.00;;;31.10;44.00;;;31.75;26.35;100568.72;4989561;28;20713;-68
2022/08/13 10:06:59;;;;;;;1.57;1.47;;;30.70;44.30;;;31.68;26.30;100554.59;4970925;28;20698;-69
2022/08/13 10:09:27;;;;;;;4.13;2.30;;;30.60;44.00;;;31.97;25.63;100552.53;4980524;28;20674;-66
2022/08/13 10:11:59;;;;;;;2.27;2.17;;;30.70;43.90;;;31.87;26.26;100560.47;4978709;28;20631;-68
2022/08/13 10:14:47;;;;;;;2.53;2.43;;;30.70;44.30;;;31.74;26.45;100572.47;4988341;28;20638;-68
2022/08/13 10:17:25;;;;;;;2.43;2.30;;;30.60;44.40;;;31.80;26.54;100557.97;4987718;28;20626;-67
2022/08/13 10:20:38;;;;;;;2.23;2.13;;;30.50;45.40;;;32.25;25.87;100546.91;4966578;28;20618;-70
2022/08/13 10:23:09;;;;;;;2.30;2.20;;;30.70;44.60;;;32.56;25.16;100542.66;4960043;28;20623;-68
2022/08/13 10:25:37;;;;;;;2.30;2.20;;;31.00;44.10;;;32.35;25.40;100552.41;4998213;23;21276;-68
2022/08/13 10:28:32;;;;;;;2.40;2.10;;;31.00;43.90;;;32.62;24.65;100547.03;5011014;28;20665;-66
2022/08/13 10:31:08;;;;;;;2.13;2.03;;;31.30;43.70;;;32.60;24.31;100551.88;5011145;28;20614;-68
2022/08/13 10:33:56;;;;;;;2.20;2.10;;;31.20;42.80;;;32.31;26.65;100550.50;5013607;28;20974;-68
2022/08/13 10:36:26;;;;;;;2.53;2.43;;;31.10;44.00;;;32.23;24.80;100532.84;4993565;28;21306;-67
2022/08/13 10:39:00;;;;;;;3.07;2.93;;;31.00;43.30;;;32.27;25.13;100539.38;5014796;28;20620;-67
2022/08/13 10:41:27;;;;;;;2.30;2.20;;;31.00;43.10;;;32.24;24.93;100541.78;5014194;28;20622;-67
2022/08/13 10:43:59;;;;;;;2.13;2.03;;;31.10;42.90;;;32.18;25.28;100540.09;5014900;28;20617;-67
2022/08/13 10:46:31;;;;;;;2.07;1.97;;;31.00;43.30;;;31.78;26.07;100551.19;5014090;28;21007;-68
2022/08/13 10:49:04;;;;;;;1.50;1.50;;;30.80;43.80;;;31.66;26.17;100537.84;5010084;28;21026;-67
2022/08/13 10:51:31;;;;;;;2.00;2.00;;;30.50;43.80;;;31.62;26.24;100525.09;5014466;28;21041;-67
2022/08/13 10:54:10;;;;;;;2.10;2.00;;;30.50;44.00;;;31.61;26.38;100536.94;4998857;28;20667;-67
2022/08/13 10:56:57;;;;;;;2.77;2.67;;;30.50;44.20;;;31.58;26.55;100532.88;5014512;28;20680;-67
2022/08/13 10:59:25;;;;;;;2.57;2.47;;;30.50;44.40;;;31.95;25.85;100522.28;5014726;28;21153;-67
2022/08/13 11:01:52;;;;;;;2.77;2.67;;;30.60;44.30;;;32.01;26.26;100519.38;5014895;28;20652;-67
2022/08/13 11:04:19;;;;;;;2.80;2.70;;;30.70;44.30;;;32.18;25.42;100529.28;4997175;28;21196;-67
2022/08/13 11:07:00;;;;;;;2.03;1.93;;;30.80;44.00;;;32.17;25.45;100514.97;5014369;28;20680;-67
2022/08/13 11:09:28;;;;;;;2.13;2.03;;;30.80;44.50;;;32.08;25.67;100520.00;5014585;28;20628;-70
2022/08/13 11:12:08;;;;;;;2.27;2.17;;;30.80;44.00;;;32.10;25.51;100517.88;5014733;28;20614;-67
2022/08/13 11:14:35;;;;;;;3.10;2.27;;;30.90;43.70;;;31.80;25.63;100525.59;5014335;28;20985;-66
2022/08/13 11:17:09;;;;;;;2.50;2.40;;;30.80;43.30;;;31.58;25.35;100514.00;5014167;28;20622;-67